KSLB/SLB METAR and TAF weather

Enter ICAO airport designator
Station Type Date Time Source
KSLB METAR 2022/08/16 19:15 UTC NOAA

KSLB 161915Z AUTO 09009KT 10SM 24/18 A3015 RMK AO2


Station Type Date Time Source
KSLB Decoded METAR 2022/08/16 19:15 UTC NOAA

Storm Lake, IA, United States (KSLB) 42-36N 095-14W
Aug 16, 2022 - 03:15 PM EDT / 2022.08.16 1915 UTC
Wind: from the E (090 degrees) at 10 MPH (9 KT):0
Visibility: 10 mile(s):0
Temperature: 75 F (24 C)
Dew Point: 64 F (18 C)
Relative Humidity: 69%
Pressure (altimeter): 30.15 in. Hg (1020 hPa)
ob: KSLB 161915Z AUTO 09009KT 10SM 24/18 A3015 RMK AO2
cycle: 19

Station Type Date Time Source
KSLB TAF UTC NOAA

Error!

Example: see airport list